createdAt,value
2022-10-19T00:01:09.079Z,7.73
2022-10-19T00:03:36.061Z,7.76
2022-10-19T00:06:16.302Z,7.68
2022-10-19T00:08:43.693Z,7.66
2022-10-19T00:11:11.288Z,7.67
2022-10-19T00:13:39.067Z,7.63
2022-10-19T00:16:13.399Z,7.55
2022-10-19T00:18:41.164Z,7.55
2022-10-19T00:21:09.291Z,7.67
2022-10-19T00:23:37.308Z,7.65
2022-10-19T00:26:03.994Z,7.60
2022-10-19T00:28:30.910Z,7.71
2022-10-19T00:30:57.590Z,7.56
2022-10-19T00:33:24.178Z,7.41
2022-10-19T00:35:52.058Z,7.33
2022-10-19T00:38:22.509Z,7.23
2022-10-19T00:40:49.544Z,7.20
2022-10-19T00:43:21.497Z,7.28
2022-10-19T00:45:57.920Z,7.24
2022-10-19T00:48:26.727Z,7.16
2022-10-19T00:50:54.788Z,7.15
2022-10-19T00:53:24.644Z,7.16
2022-10-19T00:55:51.428Z,7.21
2022-10-19T00:58:18.066Z,7.25
2022-10-19T01:00:44.797Z,7.23
2022-10-19T01:03:12.045Z,7.24
2022-10-19T01:05:41.296Z,7.29
2022-10-19T01:08:08.972Z,7.53
2022-10-19T01:11:14.238Z,7.75
2022-10-19T01:13:52.349Z,7.77
2022-10-19T01:16:51.469Z,7.87
2022-10-19T01:19:40.132Z,8.02
2022-10-19T01:22:17.336Z,8.15
2022-10-19T01:25:00.498Z,8.35
2022-10-19T01:27:45.417Z,8.41
2022-10-19T01:30:15.168Z,8.45
2022-10-19T01:32:41.643Z,8.49
2022-10-19T01:35:18.164Z,8.29
2022-10-19T01:37:50.137Z,8.14
2022-10-19T01:40:26.994Z,7.98
2022-10-19T01:42:59.628Z,7.94
2022-10-19T01:45:30.603Z,7.92
2022-10-19T01:48:23.556Z,7.90
2022-10-19T01:51:02.475Z,7.98
2022-10-19T01:53:31.538Z,8.12
2022-10-19T01:55:58.977Z,8.09
2022-10-19T01:58:28.162Z,8.14
2022-10-19T02:00:56.130Z,8.33
2022-10-19T02:03:23.601Z,8.38
2022-10-19T02:05:50.828Z,8.34
2022-10-19T02:08:23.258Z,8.44
2022-10-19T02:10:50.193Z,8.56
2022-10-19T02:13:17.024Z,8.59
2022-10-19T02:15:46.493Z,8.71
2022-10-19T02:18:16.151Z,8.91
2022-10-19T02:20:42.782Z,8.99
2022-10-19T02:23:09.711Z,9.03
2022-10-19T02:25:39.113Z,9.10
2022-10-19T02:28:05.890Z,9.11
2022-10-19T02:30:32.616Z,9.11
2022-10-19T02:32:59.307Z,9.11
2022-10-19T02:35:25.978Z,9.12
2022-10-19T02:37:59.933Z,9.18
2022-10-19T02:40:27.623Z,9.18
2022-10-19T02:43:06.301Z,9.17
2022-10-19T02:45:36.746Z,9.17
2022-10-19T02:48:07.775Z,9.18
2022-10-19T02:50:34.543Z,9.26
2022-10-19T02:53:01.299Z,9.23
2022-10-19T02:55:29.298Z,9.20
2022-10-19T02:57:55.984Z,9.19
2022-10-19T03:00:22.667Z,9.18
2022-10-19T03:02:49.313Z,9.23
2022-10-19T03:05:18.260Z,9.17
2022-10-19T03:07:44.805Z,9.16
2022-10-19T03:10:11.386Z,9.12
2022-10-19T03:12:37.958Z,9.09
2022-10-19T03:15:05.186Z,9.10
2022-10-19T03:17:31.967Z,9.18
2022-10-19T03:19:58.788Z,9.15
2022-10-19T03:22:25.352Z,9.12
2022-10-19T03:24:52.037Z,9.07
2022-10-19T03:27:18.615Z,9.06
2022-10-19T03:29:45.203Z,9.03
2022-10-19T03:32:11.810Z,9.02
2022-10-19T03:34:38.370Z,9.02
2022-10-19T03:37:04.956Z,9.11
2022-10-19T03:39:31.616Z,9.08
2022-10-19T03:41:58.223Z,9.03
2022-10-19T03:44:24.828Z,9.04
2022-10-19T03:46:51.442Z,9.08
2022-10-19T03:49:18.106Z,9.09
2022-10-19T03:51:47.668Z,9.15
2022-10-19T03:54:16.291Z,9.13
2022-10-19T03:56:43.382Z,9.23
2022-10-19T03:59:17.346Z,9.22
2022-10-19T04:01:45.294Z,9.20
2022-10-19T04:04:19.309Z,9.18
2022-10-19T04:06:51.127Z,9.12
2022-10-19T04:09:19.878Z,9.04
2022-10-19T04:11:47.248Z,9.03
2022-10-19T04:14:22.822Z,9.02
2022-10-19T04:17:02.606Z,9.02
2022-10-19T04:19:29.241Z,9.01
2022-10-19T04:21:55.810Z,9.03
2022-10-19T04:24:22.900Z,9.08
2022-10-19T04:26:51.570Z,9.08
2022-10-19T04:29:19.679Z,9.09
2022-10-19T04:31:48.187Z,9.10
2022-10-19T04:34:14.838Z,9.08
2022-10-19T04:36:41.431Z,9.07
2022-10-19T04:39:08.405Z,9.04
2022-10-19T04:41:35.445Z,9.03
2022-10-19T04:44:04.041Z,9.07
2022-10-19T04:46:30.848Z,9.03
2022-10-19T04:48:58.077Z,9.02
2022-10-19T04:51:25.454Z,9.04
2022-10-19T04:53:55.566Z,9.06
2022-10-19T04:56:29.116Z,8.99
2022-10-19T04:58:57.457Z,8.93
2022-10-19T05:01:25.475Z,8.95
2022-10-19T05:06:24.441Z,8.85
2022-10-19T05:08:51.501Z,8.80
2022-10-19T05:11:18.915Z,8.81
2022-10-19T05:13:45.702Z,8.82
2022-10-19T05:16:17.902Z,8.76
2022-10-19T05:18:52.510Z,8.71
2022-10-19T05:21:20.853Z,8.69
2022-10-19T05:23:50.531Z,8.68
2022-10-19T05:26:19.150Z,8.72
2022-10-19T05:28:57.009Z,8.73
2022-10-19T05:31:26.373Z,8.67
2022-10-19T05:33:53.270Z,8.66
2022-10-19T05:36:25.311Z,8.72
2022-10-19T05:38:53.526Z,8.76
2022-10-19T05:41:20.850Z,8.77
2022-10-19T05:43:48.017Z,8.80
2022-10-19T05:46:19.465Z,8.79
2022-10-19T05:48:46.877Z,8.82
2022-10-19T05:51:18.972Z,8.87
2022-10-19T05:53:45.849Z,8.88
2022-10-19T05:56:24.341Z,8.88
2022-10-19T05:58:51.601Z,8.93
2022-10-19T06:01:19.173Z,8.98
2022-10-19T06:03:46.904Z,8.95
2022-10-19T06:06:13.654Z,9.01
2022-10-19T06:08:40.346Z,9.23
2022-10-19T06:11:08.085Z,9.20
2022-10-19T06:13:35.346Z,9.14
2022-10-19T06:16:02.015Z,9.18
2022-10-19T06:18:28.648Z,9.20
2022-10-19T06:20:55.532Z,9.23
2022-10-19T06:23:22.102Z,9.24
2022-10-19T06:25:48.702Z,9.28
2022-10-19T06:28:15.374Z,9.30
2022-10-19T06:30:42.132Z,9.35
2022-10-19T06:33:09.048Z,9.34
2022-10-19T06:35:35.971Z,9.36
2022-10-19T06:38:02.585Z,9.40
2022-10-19T06:40:29.208Z,9.38
2022-10-19T06:42:58.723Z,9.38
2022-10-19T06:45:25.387Z,9.38
2022-10-19T06:47:52.076Z,9.40
2022-10-19T06:50:21.407Z,9.43
2022-10-19T06:52:48.106Z,9.44
2022-10-19T06:55:15.060Z,9.47
2022-10-19T06:57:41.671Z,9.52
2022-10-19T07:00:09.087Z,9.56
2022-10-19T07:02:35.830Z,9.64
2022-10-19T07:05:06.032Z,9.70
2022-10-19T07:07:33.067Z,9.75
2022-10-19T07:09:59.803Z,9.83
2022-10-19T07:12:26.361Z,9.95
2022-10-19T07:14:54.360Z,10.02
2022-10-19T07:17:21.316Z,10.09
2022-10-19T07:19:47.935Z,10.15
2022-10-19T07:22:20.335Z,10.24
2022-10-19T07:24:49.790Z,10.35
2022-10-19T07:27:16.449Z,10.26
2022-10-19T07:29:43.101Z,10.40
2022-10-19T07:32:09.807Z,10.48
2022-10-19T07:34:36.412Z,10.48
2022-10-19T07:37:03.050Z,10.47
2022-10-19T07:39:29.697Z,10.48
2022-10-19T07:41:56.238Z,10.54
2022-10-19T07:44:22.870Z,10.67
2022-10-19T07:46:50.280Z,10.71
2022-10-19T07:49:18.974Z,10.88
2022-10-19T07:51:46.758Z,10.77
2022-10-19T07:54:13.794Z,10.75
2022-10-19T07:56:40.979Z,10.75
2022-10-19T07:59:07.734Z,10.64
2022-10-19T08:01:38.109Z,10.69
2022-10-19T08:06:51.507Z,10.71
2022-10-19T08:09:40.111Z,10.99
2022-10-19T08:12:06.065Z,11.03
2022-10-19T08:14:32.787Z,11.09
2022-10-19T08:17:00.100Z,11.04
2022-10-19T08:19:26.744Z,11.07
2022-10-19T08:21:53.384Z,11.18
2022-10-19T08:24:20.731Z,11.20
2022-10-19T08:26:47.502Z,11.24
2022-10-19T08:29:16.320Z,11.12
2022-10-19T08:31:44.293Z,11.13
2022-10-19T08:34:11.579Z,11.33
2022-10-19T08:36:38.218Z,11.26
2022-10-19T08:39:06.232Z,11.36
2022-10-19T08:41:57.747Z,11.68
2022-10-19T08:45:20.276Z,11.42
2022-10-19T08:47:59.969Z,11.34
2022-10-19T08:50:47.128Z,11.66
2022-10-19T08:53:18.025Z,11.55
2022-10-19T08:56:07.529Z,11.47
2022-10-19T08:59:02.499Z,11.35
2022-10-19T09:01:55.401Z,11.32
2022-10-19T09:04:33.230Z,11.35
2022-10-19T09:07:07.848Z,11.47
2022-10-19T09:09:36.208Z,11.62
2022-10-19T09:12:05.110Z,11.32
2022-10-19T09:14:36.364Z,11.43
2022-10-19T09:17:09.441Z,11.36
2022-10-19T09:19:36.263Z,11.44
2022-10-19T09:22:14.959Z,11.43
2022-10-19T09:24:50.749Z,11.54
2022-10-19T09:27:51.237Z,11.48
2022-10-19T09:30:23.499Z,11.57
2022-10-19T09:32:59.286Z,11.70
2022-10-19T09:35:28.886Z,11.24
2022-10-19T09:37:55.920Z,11.45
2022-10-19T09:40:25.170Z,11.50
2022-10-19T09:42:57.147Z,11.67
2022-10-19T09:45:38.843Z,11.65
2022-10-19T09:48:17.416Z,11.60
2022-10-19T09:50:44.842Z,11.57
2022-10-19T09:53:21.336Z,11.76
2022-10-19T09:55:52.330Z,12.05
2022-10-19T09:58:19.908Z,12.25
2022-10-19T10:00:51.682Z,11.94
2022-10-19T10:03:30.402Z,11.88
2022-10-19T10:05:59.493Z,11.71
2022-10-19T10:08:29.452Z,11.76
2022-10-19T10:11:13.830Z,11.72
2022-10-19T10:13:48.080Z,11.84
2022-10-19T10:16:18.008Z,12.02
2022-10-19T10:18:51.686Z,12.07
2022-10-19T10:21:25.815Z,12.41
2022-10-19T10:24:07.170Z,12.17
2022-10-19T10:26:42.715Z,12.04
2022-10-19T10:29:35.580Z,12.07
2022-10-19T10:32:08.181Z,12.12
2022-10-19T10:34:46.340Z,11.99
2022-10-19T10:37:23.393Z,11.84
2022-10-19T10:39:55.164Z,12.01
2022-10-19T10:42:30.460Z,12.23
2022-10-19T10:44:57.483Z,12.32
2022-10-19T10:47:27.000Z,12.03
2022-10-19T10:50:01.080Z,12.22
2022-10-19T10:52:31.524Z,12.17
2022-10-19T10:55:03.470Z,12.25
2022-10-19T10:57:36.708Z,12.19
2022-10-19T11:00:26.330Z,12.53
2022-10-19T11:03:01.248Z,12.71
2022-10-19T11:05:37.617Z,12.80
2022-10-19T11:08:16.079Z,12.66
2022-10-19T11:10:47.354Z,12.30
2022-10-19T11:13:18.649Z,12.16
2022-10-19T11:16:05.042Z,12.19
2022-10-19T11:18:39.400Z,12.18
2022-10-19T11:21:26.480Z,12.49
2022-10-19T11:24:19.423Z,12.36
2022-10-19T11:27:14.312Z,12.58
2022-10-19T11:29:46.899Z,12.65
2022-10-19T11:32:27.658Z,12.60
2022-10-19T11:35:25.663Z,12.37
2022-10-19T11:38:20.140Z,12.67
2022-10-19T11:41:19.073Z,12.45
2022-10-19T11:44:05.324Z,12.38
2022-10-19T11:47:04.862Z,12.30
2022-10-19T11:49:50.900Z,12.51
2022-10-19T11:52:59.403Z,12.22
2022-10-19T11:55:38.178Z,12.03
2022-10-19T11:58:34.607Z,11.92
2022-10-19T12:01:18.188Z,12.15
2022-10-19T12:03:57.631Z,12.13
2022-10-19T12:06:50.835Z,12.00
2022-10-19T12:09:17.410Z,12.09
2022-10-19T12:11:56.249Z,12.03
2022-10-19T12:14:27.314Z,12.24
2022-10-19T12:16:59.036Z,12.43
2022-10-19T12:19:29.307Z,12.02
2022-10-19T12:22:00.619Z,11.92
2022-10-19T12:24:28.625Z,12.02
2022-10-19T12:26:55.578Z,12.10
2022-10-19T12:29:28.387Z,12.26
2022-10-19T12:31:56.429Z,12.06
2022-10-19T12:34:31.465Z,11.95
2022-10-19T12:37:05.363Z,12.00
2022-10-19T12:40:00.088Z,11.86
2022-10-19T12:42:41.964Z,11.89
2022-10-19T12:45:30.792Z,11.81
2022-10-19T12:48:12.507Z,12.00
2022-10-19T12:50:48.206Z,11.92
2022-10-19T12:53:30.643Z,11.77
2022-10-19T12:56:00.392Z,11.67
2022-10-19T12:58:29.911Z,11.51
2022-10-19T13:01:01.201Z,11.45
2022-10-19T13:03:33.088Z,11.26
2022-10-19T13:06:02.599Z,11.14
2022-10-19T13:08:38.807Z,11.05
2022-10-19T13:11:15.191Z,11.12
2022-10-19T13:13:55.166Z,10.87
2022-10-19T13:16:36.805Z,10.72
2022-10-19T13:19:12.467Z,10.72
2022-10-19T13:21:48.159Z,10.62
2022-10-19T13:24:20.649Z,10.62
2022-10-19T13:26:47.199Z,10.60
2022-10-19T13:29:39.822Z,10.53
2022-10-19T13:32:37.968Z,10.50
2022-10-19T13:35:23.487Z,10.49
2022-10-19T13:38:09.113Z,10.56
2022-10-19T13:40:56.895Z,10.55
2022-10-19T13:43:26.437Z,10.46
2022-10-19T13:46:06.445Z,10.46
2022-10-19T13:49:10.637Z,10.42
2022-10-19T13:51:56.018Z,10.57
2022-10-19T13:55:04.083Z,10.41
2022-10-19T13:57:51.508Z,10.36
2022-10-19T14:00:22.261Z,10.29
2022-10-19T14:03:20.578Z,10.43
2022-10-19T14:06:08.607Z,10.31
2022-10-19T14:08:44.936Z,10.46
2022-10-19T14:11:14.516Z,10.41
2022-10-19T14:13:41.169Z,10.25
2022-10-19T14:16:16.313Z,10.20
2022-10-19T14:18:42.911Z,10.20
2022-10-19T14:21:10.198Z,10.27
2022-10-19T14:23:41.371Z,10.26
2022-10-19T14:26:21.036Z,10.21
2022-10-19T14:28:53.092Z,10.18
2022-10-19T14:31:34.134Z,10.17
2022-10-19T14:34:03.355Z,10.10
2022-10-19T14:36:37.494Z,10.12
2022-10-19T14:39:04.654Z,10.09
2022-10-19T14:41:32.805Z,10.00
2022-10-19T14:44:02.718Z,9.88
2022-10-19T14:46:31.063Z,9.88
2022-10-19T14:49:02.527Z,9.94
2022-10-19T14:51:44.347Z,10.03
2022-10-19T14:54:31.051Z,9.90
2022-10-19T14:56:57.564Z,9.96
2022-10-19T14:59:31.909Z,9.94
2022-10-19T15:02:00.631Z,10.00
2022-10-19T15:04:34.263Z,9.84
2022-10-19T15:07:06.128Z,9.81
2022-10-19T15:09:47.854Z,9.69
2022-10-19T15:12:17.251Z,9.68
2022-10-19T15:14:44.499Z,9.80
2022-10-19T15:17:26.721Z,9.71
2022-10-19T15:19:55.611Z,9.69
2022-10-19T15:22:23.662Z,9.61
2022-10-19T15:25:08.619Z,9.66
2022-10-19T15:27:36.388Z,9.73
2022-10-19T15:30:18.172Z,9.65
2022-10-19T15:33:04.990Z,9.61
2022-10-19T15:35:33.607Z,9.77
2022-10-19T15:38:24.553Z,9.65
2022-10-19T15:40:56.944Z,9.50
2022-10-19T15:43:50.714Z,9.58
2022-10-19T15:49:38.253Z,9.38
2022-10-19T15:52:18.185Z,9.20
2022-10-19T15:54:48.726Z,9.11
2022-10-19T15:57:25.789Z,8.80
2022-10-19T15:59:52.971Z,8.91
2022-10-19T16:02:19.631Z,9.11
2022-10-19T16:04:46.295Z,8.98
2022-10-19T16:07:16.796Z,8.96
2022-10-19T16:09:43.381Z,8.89
2022-10-19T16:12:11.033Z,8.81
2022-10-19T16:14:37.546Z,8.74
2022-10-19T16:17:04.751Z,8.65
2022-10-19T16:19:31.374Z,8.59
2022-10-19T16:21:58.029Z,8.54
2022-10-19T16:24:24.691Z,8.48
2022-10-19T16:26:51.375Z,8.53
2022-10-19T16:29:17.982Z,8.42
2022-10-19T16:31:44.579Z,8.30
2022-10-19T16:34:11.138Z,8.21
2022-10-19T16:36:37.809Z,8.16
2022-10-19T16:39:04.939Z,7.94
2022-10-19T16:41:31.550Z,7.82
2022-10-19T16:43:58.218Z,7.63
2022-10-19T16:46:25.587Z,7.44
2022-10-19T16:48:52.701Z,7.34
2022-10-19T16:51:35.018Z,7.33
2022-10-19T16:54:02.650Z,7.27
2022-10-19T16:56:30.248Z,7.25
2022-10-19T16:59:02.270Z,7.21
2022-10-19T17:01:29.841Z,7.29
2022-10-19T17:03:56.860Z,7.46
2022-10-19T17:06:24.174Z,7.67
2022-10-19T17:11:38.896Z,7.39
2022-10-19T17:14:08.251Z,7.35
2022-10-19T17:16:36.275Z,7.44
2022-10-19T17:19:05.329Z,7.50
2022-10-19T17:21:34.243Z,7.57
2022-10-19T17:24:02.517Z,7.52
2022-10-19T17:26:39.293Z,7.38
2022-10-19T17:29:06.463Z,7.43
2022-10-19T17:31:33.142Z,7.29
2022-10-19T17:34:00.807Z,7.11
2022-10-19T17:36:33.048Z,7.01
2022-10-19T17:39:03.691Z,7.06
2022-10-19T17:41:31.080Z,7.11
2022-10-19T17:43:58.221Z,7.25
2022-10-19T17:46:30.842Z,7.33
2022-10-19T17:48:58.395Z,7.40
2022-10-19T17:51:28.401Z,7.33
2022-10-19T17:53:57.291Z,7.25
2022-10-19T17:56:24.843Z,7.37
2022-10-19T17:58:51.783Z,7.25
2022-10-19T18:01:19.650Z,7.22
2022-10-19T18:03:46.492Z,7.18
2022-10-19T18:06:16.221Z,7.05
2022-10-19T18:08:48.731Z,7.20
2022-10-19T18:11:17.987Z,7.02
2022-10-19T18:13:44.812Z,7.00
2022-10-19T18:16:17.527Z,6.98
2022-10-19T18:18:45.968Z,6.90
2022-10-19T18:21:13.662Z,6.91
2022-10-19T18:23:41.836Z,6.86
2022-10-19T18:26:10.779Z,6.82
2022-10-19T18:28:37.588Z,6.80
2022-10-19T18:31:19.513Z,6.89
2022-10-19T18:33:55.527Z,6.86
2022-10-19T18:36:22.132Z,6.79
2022-10-19T18:38:53.462Z,6.78
2022-10-19T18:41:20.825Z,6.75
2022-10-19T18:44:01.187Z,6.77
2022-10-19T18:46:27.809Z,6.67
2022-10-19T18:48:54.350Z,6.78
2022-10-19T18:51:22.304Z,6.93
2022-10-19T18:53:49.251Z,7.07
2022-10-19T18:56:18.513Z,7.04
2022-10-19T18:58:45.608Z,6.90
2022-10-19T19:01:13.186Z,6.79
2022-10-19T19:03:43.171Z,6.75
2022-10-19T19:06:12.551Z,6.87
2022-10-19T19:08:39.824Z,6.78
2022-10-19T19:11:12.990Z,6.84
2022-10-19T19:13:40.241Z,6.76
2022-10-19T19:16:07.630Z,6.83
2022-10-19T19:18:34.954Z,6.89
2022-10-19T19:21:02.354Z,6.83
2022-10-19T19:23:29.526Z,7.03
2022-10-19T19:25:56.724Z,6.96
2022-10-19T19:28:23.282Z,7.24
2022-10-19T19:30:49.871Z,7.21
2022-10-19T19:33:16.559Z,7.15
2022-10-19T19:35:47.065Z,7.10
2022-10-19T19:38:14.620Z,7.27
2022-10-19T19:40:42.684Z,7.28
2022-10-19T19:43:10.183Z,7.29
2022-10-19T19:45:37.595Z,7.13
2022-10-19T19:48:05.633Z,7.36
2022-10-19T19:50:33.154Z,7.22
2022-10-19T19:52:59.987Z,7.09
2022-10-19T19:55:27.660Z,7.27
2022-10-19T19:57:54.791Z,7.12
2022-10-19T20:00:22.931Z,7.24
2022-10-19T20:02:55.173Z,7.15
2022-10-19T20:05:22.474Z,7.15
2022-10-19T20:07:49.489Z,7.24
2022-10-19T20:10:16.217Z,7.19
2022-10-19T20:12:43.724Z,7.32
2022-10-19T20:15:11.637Z,7.25
2022-10-19T20:17:38.688Z,7.19
2022-10-19T20:20:06.395Z,7.27
2022-10-19T20:22:33.019Z,7.26
2022-10-19T20:24:59.687Z,7.07
2022-10-19T20:27:26.371Z,7.14
2022-10-19T20:29:58.366Z,6.94
2022-10-19T20:32:26.157Z,7.00
2022-10-19T20:34:52.907Z,7.21
2022-10-19T20:37:20.379Z,7.02
2022-10-19T20:39:47.614Z,6.97
2022-10-19T20:42:15.084Z,7.04
2022-10-19T20:44:41.664Z,6.98
2022-10-19T20:47:08.309Z,6.92
2022-10-19T20:49:34.963Z,6.97
2022-10-19T20:52:01.605Z,6.96
2022-10-19T20:54:28.364Z,6.98
2022-10-19T20:56:54.999Z,6.93
2022-10-19T20:59:25.199Z,6.95
2022-10-19T21:01:53.117Z,7.07
2022-10-19T21:04:20.010Z,6.89
2022-10-19T21:06:49.710Z,6.77
2022-10-19T21:09:18.654Z,6.83
2022-10-19T21:11:47.223Z,6.83
2022-10-19T21:14:16.087Z,6.78
2022-10-19T21:16:43.291Z,6.79
2022-10-19T21:19:15.518Z,6.84
2022-10-19T21:21:44.443Z,6.70
2022-10-19T21:24:16.876Z,6.70
2022-10-19T21:26:43.932Z,6.77
2022-10-19T21:29:11.606Z,6.68
2022-10-19T21:31:42.155Z,6.78
2022-10-19T21:34:16.937Z,6.86
2022-10-19T21:36:43.578Z,6.67
2022-10-19T21:39:10.235Z,6.73
2022-10-19T21:41:36.813Z,6.70
2022-10-19T21:44:03.644Z,6.63
2022-10-19T21:46:30.354Z,6.69
2022-10-19T21:48:56.981Z,6.51
2022-10-19T21:51:35.910Z,6.69
2022-10-19T21:54:06.842Z,6.75
2022-10-19T21:56:34.010Z,6.79
2022-10-19T21:59:00.561Z,6.56
2022-10-19T22:01:29.359Z,6.87
2022-10-19T22:03:57.570Z,6.99
2022-10-19T22:06:25.460Z,6.96
2022-10-19T22:08:52.370Z,6.80
2022-10-19T22:11:19.524Z,6.81
2022-10-19T22:13:46.444Z,6.66
2022-10-19T22:16:18.016Z,6.67
2022-10-19T22:18:45.218Z,6.74
2022-10-19T22:21:15.516Z,6.51
2022-10-19T22:23:42.893Z,6.61
2022-10-19T22:26:13.511Z,6.65
2022-10-19T22:28:40.175Z,6.53
2022-10-19T22:31:06.791Z,6.48
2022-10-19T22:33:34.863Z,6.43
2022-10-19T22:36:02.525Z,6.53
2022-10-19T22:38:29.496Z,6.44
2022-10-19T22:40:56.089Z,6.21
2022-10-19T22:43:22.662Z,6.25
2022-10-19T22:45:50.177Z,6.29
2022-10-19T22:48:18.139Z,6.11
2022-10-19T22:50:45.241Z,6.19
2022-10-19T22:53:12.502Z,6.11
2022-10-19T22:55:39.213Z,6.08
2022-10-19T22:58:06.856Z,6.05
2022-10-19T23:00:33.564Z,6.06
2022-10-19T23:03:00.197Z,5.98
2022-10-19T23:05:26.848Z,6.01
2022-10-19T23:07:53.443Z,5.90
2022-10-19T23:10:20.124Z,5.98
2022-10-19T23:12:53.337Z,5.90
2022-10-19T23:15:20.974Z,5.94
2022-10-19T23:17:47.648Z,6.11
2022-10-19T23:20:14.717Z,6.17
2022-10-19T23:22:41.278Z,5.94
2022-10-19T23:25:08.522Z,5.92
2022-10-19T23:27:35.457Z,6.10
2022-10-19T23:30:03.502Z,6.16
2022-10-19T23:32:30.168Z,5.98
2022-10-19T23:34:56.920Z,5.90
2022-10-19T23:37:23.550Z,6.08
2022-10-19T23:39:50.083Z,5.98
2022-10-19T23:42:16.665Z,5.88
2022-10-19T23:44:43.256Z,5.98
2022-10-19T23:47:09.813Z,6.07
2022-10-19T23:49:36.389Z,6.16
2022-10-19T23:52:02.983Z,5.95
2022-10-19T23:54:29.638Z,5.98
2022-10-19T23:56:56.223Z,5.89
2022-10-19T23:59:22.909Z,5.69
